createdAt,value
2019-03-23T00:01:00.247Z,15.93
2019-03-23T00:05:06.452Z,14.80
2019-03-23T00:09:09.434Z,16.37
2019-03-23T00:13:12.431Z,15.83
2019-03-23T00:17:15.426Z,15.33
2019-03-23T00:21:18.422Z,15.50
2019-03-23T00:25:21.526Z,14.00
2019-03-23T00:29:24.528Z,15.83
2019-03-23T00:33:27.528Z,15.47
2019-03-23T00:37:30.624Z,15.77
2019-03-23T00:41:35.665Z,14.90
2019-03-23T00:45:38.657Z,14.67
2019-03-23T00:49:41.639Z,14.60
2019-03-23T00:53:44.646Z,14.67
2019-03-23T00:57:47.650Z,14.10
2019-03-23T01:01:51.935Z,13.97
2019-03-23T01:05:54.959Z,13.30
2019-03-23T01:09:57.958Z,14.37
2019-03-23T01:14:00.954Z,15.10
2019-03-23T01:18:03.965Z,13.40
2019-03-23T01:22:07.064Z,13.77
2019-03-23T01:26:10.091Z,13.73
2019-03-23T01:30:13.853Z,11.77
2019-03-23T01:34:16.846Z,14.40
2019-03-23T01:38:20.021Z,13.60
2019-03-23T01:42:23.063Z,13.20
2019-03-23T01:46:26.064Z,12.10
2019-03-23T01:50:29.063Z,13.07
2019-03-23T01:54:32.091Z,13.77
2019-03-23T01:58:35.081Z,13.43
2019-03-23T02:02:39.917Z,12.80
2019-03-23T02:06:42.997Z,12.70
2019-03-23T02:10:45.989Z,14.30
2019-03-23T02:14:48.984Z,13.13
2019-03-23T02:18:52.054Z,14.30
2019-03-23T02:22:55.069Z,12.33
2019-03-23T02:26:58.323Z,11.83
2019-03-23T02:31:01.318Z,13.20
2019-03-23T02:35:06.645Z,12.67
2019-03-23T02:39:09.703Z,12.57
2019-03-23T02:43:12.807Z,12.70
2019-03-23T02:47:15.831Z,13.00
2019-03-23T02:51:18.868Z,12.47
2019-03-23T02:55:21.846Z,12.70
2019-03-23T02:59:24.853Z,12.67
2019-03-23T03:03:28.923Z,13.03
2019-03-23T03:07:41.890Z,13.47
2019-03-23T03:11:36.826Z,13.23
2019-03-23T03:15:39.811Z,16.33
2019-03-23T03:19:42.815Z,14.50
2019-03-23T03:23:45.928Z,14.93
2019-03-23T03:27:48.934Z,14.67
2019-03-23T03:31:51.930Z,16.63
2019-03-23T03:35:55.022Z,16.67
2019-03-23T03:39:58.027Z,17.13
2019-03-23T03:44:01.245Z,17.93
2019-03-23T03:48:04.250Z,17.33
2019-03-23T03:52:07.242Z,17.97
2019-03-23T03:56:11.389Z,17.90
2019-03-23T04:00:14.405Z,17.63
2019-03-23T04:04:18.517Z,19.03
2019-03-23T04:08:21.533Z,18.83
2019-03-23T04:12:24.540Z,19.13
2019-03-23T04:16:27.534Z,17.57
2019-03-23T04:20:30.539Z,16.90
2019-03-23T04:24:33.534Z,17.50
2019-03-23T04:28:36.542Z,17.90
2019-03-23T04:32:39.630Z,18.50
2019-03-23T04:36:42.614Z,16.80
2019-03-23T04:40:45.718Z,17.10
2019-03-23T04:44:48.711Z,18.50
2019-03-23T04:48:51.703Z,17.37
2019-03-23T04:52:54.708Z,16.70
2019-03-23T04:56:57.715Z,18.50
2019-03-23T05:01:00.714Z,18.77
2019-03-23T05:05:05.339Z,19.37
2019-03-23T05:09:08.339Z,18.83
2019-03-23T05:13:11.335Z,20.63
2019-03-23T05:17:14.439Z,19.70
2019-03-23T05:21:17.446Z,19.73
2019-03-23T05:25:23.520Z,20.50
2019-03-23T05:29:26.583Z,21.10
2019-03-23T05:33:29.581Z,20.90
2019-03-23T05:37:32.584Z,20.43
2019-03-23T05:41:35.670Z,24.40
2019-03-23T05:45:38.674Z,21.50
2019-03-23T05:49:41.667Z,22.03
2019-03-23T05:53:44.674Z,21.30
2019-03-23T05:57:47.672Z,20.40
2019-03-23T06:01:50.668Z,22.00
2019-03-23T06:05:55.560Z,19.50
2019-03-23T06:09:58.542Z,21.10
2019-03-23T06:14:02.040Z,20.93
2019-03-23T06:18:05.082Z,20.50
2019-03-23T06:22:08.078Z,20.17
2019-03-23T06:26:11.087Z,22.53
2019-03-23T06:30:14.275Z,23.53
2019-03-23T06:34:17.273Z,21.97
2019-03-23T06:38:20.262Z,19.10
2019-03-23T06:42:24.294Z,21.23
2019-03-23T06:46:27.288Z,20.70
2019-03-23T06:50:30.393Z,21.23
2019-03-23T06:54:39.203Z,19.80
2019-03-23T06:58:42.209Z,21.00
2019-03-23T07:02:45.219Z,22.37
2019-03-23T07:06:49.222Z,24.17
2019-03-23T07:10:52.421Z,24.47
2019-03-23T07:14:55.447Z,24.60
2019-03-23T07:18:58.426Z,24.97
2019-03-23T07:23:01.423Z,24.10
2019-03-23T07:27:04.428Z,24.60
2019-03-23T07:31:08.419Z,23.03
2019-03-23T07:35:11.846Z,25.87
2019-03-23T07:39:14.839Z,23.93
2019-03-23T07:43:17.925Z,23.70
2019-03-23T07:47:20.920Z,25.33
2019-03-23T07:51:23.922Z,24.70
2019-03-23T07:55:26.917Z,23.90
2019-03-23T07:59:29.920Z,24.63
2019-03-23T08:03:32.911Z,24.70
2019-03-23T08:07:38.123Z,23.30
2019-03-23T08:11:41.132Z,24.07
2019-03-23T08:15:44.717Z,24.13
2019-03-23T08:19:47.726Z,22.97
2019-03-23T08:23:50.714Z,23.20
2019-03-23T08:27:53.993Z,22.27
2019-03-23T08:31:57.196Z,21.23
2019-03-23T08:36:01.332Z,22.00
2019-03-23T08:40:05.594Z,22.20
2019-03-23T08:44:08.705Z,20.03
2019-03-23T08:48:11.731Z,21.63
2019-03-23T08:52:14.764Z,22.50
2019-03-23T08:56:17.766Z,20.90
2019-03-23T09:00:21.847Z,21.87
2019-03-23T09:04:25.047Z,23.50
2019-03-23T09:08:29.015Z,21.17
2019-03-23T09:12:32.462Z,23.83
2019-03-23T09:16:35.759Z,22.20
2019-03-23T09:20:38.944Z,22.87
2019-03-23T09:24:42.126Z,21.90
2019-03-23T09:28:45.448Z,23.60
2019-03-23T09:32:48.646Z,24.53
2019-03-23T09:36:51.760Z,25.20
2019-03-23T09:40:54.870Z,25.37
2019-03-23T09:44:57.942Z,25.60
2019-03-23T09:49:01.010Z,25.47
2019-03-23T09:53:04.159Z,24.50
2019-03-23T09:57:07.245Z,25.50
2019-03-23T10:01:10.343Z,25.10
2019-03-23T10:05:13.446Z,24.60
2019-03-23T10:09:17.897Z,26.30
2019-03-23T10:13:23.993Z,25.03
2019-03-23T10:17:27.080Z,26.47
2019-03-23T10:21:30.204Z,28.00
2019-03-23T10:25:33.372Z,29.27
2019-03-23T10:29:36.434Z,30.00
2019-03-23T10:33:39.480Z,31.23
2019-03-23T10:37:42.505Z,26.87
2019-03-23T10:41:45.504Z,27.60
2019-03-23T10:45:48.592Z,26.70
2019-03-23T10:49:54.201Z,26.83
2019-03-23T10:53:57.195Z,28.50
2019-03-23T10:58:00.370Z,13.57
2019-03-23T11:02:04.478Z,27.40
2019-03-23T11:06:07.607Z,21.77
2019-03-23T11:10:12.867Z,26.60
2019-03-23T11:14:15.917Z,29.23
2019-03-23T11:18:18.973Z,26.90
2019-03-23T11:22:25.010Z,29.27
2019-03-23T11:26:28.203Z,30.17
2019-03-23T11:30:31.456Z,27.67
2019-03-23T11:34:34.465Z,30.27
2019-03-23T11:38:37.524Z,29.60
2019-03-23T11:42:49.838Z,32.40
2019-03-23T11:46:48.987Z,30.00
2019-03-23T11:50:52.139Z,26.53
2019-03-23T11:54:55.146Z,31.30
2019-03-23T11:58:59.235Z,29.60
2019-03-23T12:03:02.335Z,29.20
2019-03-23T12:07:05.367Z,30.60
2019-03-23T12:11:09.713Z,31.07
2019-03-23T12:15:12.928Z,30.90
2019-03-23T12:19:17.974Z,31.13
2019-03-23T12:23:21.064Z,32.40
2019-03-23T12:27:24.805Z,34.90
2019-03-23T12:31:28.914Z,32.33
2019-03-23T12:35:32.959Z,30.27
2019-03-23T12:39:35.952Z,34.90
2019-03-23T12:43:40.072Z,34.10
2019-03-23T12:47:44.179Z,33.57
2019-03-23T12:51:55.393Z,37.00
2019-03-23T12:56:06.955Z,36.67
2019-03-23T13:00:13.316Z,33.30
2019-03-23T13:04:17.355Z,32.60
2019-03-23T13:08:20.352Z,32.97
2019-03-23T13:12:24.268Z,34.50
2019-03-23T13:16:28.440Z,34.07
2019-03-23T13:20:32.260Z,33.00
2019-03-23T13:24:35.423Z,33.63
2019-03-23T13:28:40.731Z,33.83
2019-03-23T13:32:51.808Z,34.90
2019-03-23T13:36:54.865Z,34.47
2019-03-23T13:40:58.882Z,34.70
2019-03-23T13:45:05.476Z,33.00
2019-03-23T13:49:08.821Z,28.97
2019-03-23T13:53:12.027Z,34.27
2019-03-23T13:57:15.052Z,32.50
2019-03-23T14:01:18.074Z,32.90
2019-03-23T14:05:24.108Z,30.70
2019-03-23T14:09:27.231Z,31.13
2019-03-23T14:13:36.064Z,30.97
2019-03-23T14:17:41.337Z,32.47
2019-03-23T14:22:11.605Z,30.03
2019-03-23T14:26:32.038Z,33.80
2019-03-23T14:30:35.286Z,30.73
2019-03-23T14:34:38.475Z,28.63
2019-03-23T14:38:42.696Z,30.53
2019-03-23T14:42:45.681Z,32.13
2019-03-23T14:46:48.683Z,32.80
2019-03-23T14:50:51.673Z,33.43
2019-03-23T14:54:55.964Z,33.17
2019-03-23T14:58:58.963Z,33.90
2019-03-23T15:03:01.964Z,33.60
2019-03-23T15:07:04.966Z,34.03
2019-03-23T15:11:07.968Z,41.10
2019-03-23T15:15:12.152Z,42.57
2019-03-23T15:19:15.712Z,43.90
2019-03-23T15:23:18.878Z,43.70
2019-03-23T15:27:21.882Z,45.97
2019-03-23T15:31:24.878Z,41.23
2019-03-23T15:35:27.875Z,45.97
2019-03-23T15:39:30.861Z,45.70
2019-03-23T15:43:33.845Z,44.93
2019-03-23T15:47:36.846Z,46.70
2019-03-23T15:51:39.842Z,42.07
2019-03-23T15:55:42.841Z,46.63
2019-03-23T15:59:46.835Z,45.23
2019-03-23T16:03:49.831Z,47.37
2019-03-23T16:07:52.860Z,44.60
2019-03-23T16:11:56.988Z,43.97
2019-03-23T16:16:00.632Z,47.30
2019-03-23T16:20:05.831Z,45.37
2019-03-23T16:24:08.821Z,49.10
2019-03-23T16:28:11.811Z,50.87
2019-03-23T16:32:14.818Z,49.77
2019-03-23T16:36:17.814Z,48.93
2019-03-23T16:40:20.818Z,48.17
2019-03-23T16:44:23.823Z,47.53
2019-03-23T16:48:26.815Z,46.03
2019-03-23T16:52:29.895Z,52.63
2019-03-23T16:56:32.904Z,47.70
2019-03-23T17:00:36.987Z,47.80
2019-03-23T17:04:40.119Z,47.27
2019-03-23T17:08:43.126Z,51.73
2019-03-23T17:12:55.111Z,46.20
2019-03-23T17:16:52.411Z,48.13
2019-03-23T17:20:55.511Z,50.30
2019-03-23T17:24:58.498Z,52.20
2019-03-23T17:29:01.506Z,52.23
2019-03-23T17:33:04.502Z,49.17
2019-03-23T17:37:07.545Z,54.13
2019-03-23T17:41:10.628Z,52.10
2019-03-23T17:45:13.847Z,52.40
2019-03-23T17:49:16.956Z,52.60
2019-03-23T17:53:19.966Z,54.57
2019-03-23T17:57:23.216Z,54.60
2019-03-23T18:01:26.369Z,54.13
2019-03-23T18:05:29.387Z,56.47
2019-03-23T18:09:32.395Z,55.80
2019-03-23T18:13:35.406Z,56.10
2019-03-23T18:17:39.080Z,52.80
2019-03-23T18:21:42.064Z,53.47
2019-03-23T18:25:45.083Z,52.00
2019-03-23T18:29:48.593Z,47.57
2019-03-23T18:33:51.615Z,53.97
2019-03-23T18:37:54.609Z,52.20
2019-03-23T18:41:57.603Z,46.50
2019-03-23T18:46:00.617Z,49.73
2019-03-23T18:50:04.919Z,52.83
2019-03-23T18:54:07.929Z,49.33
2019-03-23T18:58:11.030Z,50.20
2019-03-23T19:02:14.034Z,50.07
2019-03-23T19:06:17.031Z,48.80
2019-03-23T19:10:20.036Z,45.03
2019-03-23T19:14:23.035Z,40.37
2019-03-23T19:18:27.614Z,34.90
2019-03-23T19:22:30.658Z,32.30
2019-03-23T19:26:33.747Z,31.57
2019-03-23T19:30:36.850Z,33.90
2019-03-23T19:34:39.851Z,32.67
2019-03-23T19:38:42.858Z,34.60
2019-03-23T19:42:45.967Z,33.20
2019-03-23T19:46:48.956Z,33.07
2019-03-23T19:50:51.958Z,34.77
2019-03-23T19:54:55.045Z,34.00
2019-03-23T19:58:58.117Z,29.63
2019-03-23T20:03:01.114Z,33.70
2019-03-23T20:07:04.115Z,33.30
2019-03-23T20:11:07.122Z,32.33
2019-03-23T20:15:10.725Z,32.90
2019-03-23T20:19:14.512Z,33.77
2019-03-23T20:23:17.488Z,34.60
2019-03-23T20:27:20.486Z,32.00
2019-03-23T20:31:23.488Z,35.17
2019-03-23T20:35:26.510Z,32.20
2019-03-23T20:39:29.534Z,33.33
2019-03-23T20:43:32.555Z,30.93
2019-03-23T20:47:38.547Z,33.83
2019-03-23T20:51:42.647Z,33.37
2019-03-23T20:55:45.635Z,30.57
2019-03-23T20:59:48.644Z,33.07
2019-03-23T21:03:51.706Z,30.97
2019-03-23T21:07:54.784Z,31.73
2019-03-23T21:11:57.807Z,30.90
2019-03-23T21:16:00.827Z,29.53
2019-03-23T21:20:06.507Z,31.63
2019-03-23T21:24:12.518Z,32.03
2019-03-23T21:28:15.491Z,32.20
2019-03-23T21:32:18.592Z,32.60
2019-03-23T21:36:21.595Z,31.07
2019-03-23T21:40:24.574Z,33.93
2019-03-23T21:44:31.110Z,33.73
2019-03-23T21:48:32.478Z,34.13
2019-03-23T21:52:35.481Z,31.93
2019-03-23T21:56:38.496Z,32.70
2019-03-23T22:00:41.487Z,33.13
2019-03-23T22:04:44.499Z,35.03
2019-03-23T22:08:47.521Z,33.50
2019-03-23T22:12:50.518Z,36.20
2019-03-23T22:16:53.522Z,34.20
2019-03-23T22:20:57.559Z,37.10
2019-03-23T22:25:00.713Z,38.47
2019-03-23T22:29:03.798Z,39.30
2019-03-23T22:33:06.919Z,36.27
2019-03-23T22:37:09.921Z,35.10
2019-03-23T22:41:12.923Z,39.07
2019-03-23T22:45:15.931Z,37.43
2019-03-23T22:49:18.981Z,34.97
2019-03-23T22:53:21.980Z,37.93
2019-03-23T22:57:24.978Z,37.40
2019-03-23T23:01:28.022Z,36.40
2019-03-23T23:05:31.099Z,35.60
2019-03-23T23:09:34.192Z,36.30
2019-03-23T23:13:37.190Z,34.27
2019-03-23T23:17:40.190Z,33.37
2019-03-23T23:21:44.135Z,34.83
2019-03-23T23:25:47.175Z,35.70
2019-03-23T23:29:51.190Z,33.50
2019-03-23T23:33:54.307Z,34.30
2019-03-23T23:37:57.378Z,39.07
2019-03-23T23:42:00.479Z,34.17
2019-03-23T23:46:03.471Z,37.20
2019-03-23T23:50:07.264Z,34.57
2019-03-23T23:54:10.260Z,38.80
2019-03-23T23:58:13.265Z,38.83
